Time;durP1;ratioP1;P1;durP2;ratioP2;P2;SDS_P1;SDS_P2;PMS_P1;PMS_P2;Temp;Humidity;BMP_temperature;BMP_pressure;BME280_temperature;BME280_humidity;BME280_pressure;Samples;Min_cycle;Max_cycle;Signal;HPM_P1;HPM_P2
2022/03/23 00:01:50;;;;;;;32.50;15.33;;;6.60;90.10;;;;;;5115031;28;20215;-68
2022/03/23 00:04:17;;;;;;;36.20;15.60;;;6.60;90.20;;;;;;5114884;28;20210;-69
2022/03/23 00:06:45;;;;;;;35.77;16.70;;;6.50;90.30;;;;;;5114967;28;20605;-69
2022/03/23 00:09:14;;;;;;;37.73;16.50;;;6.50;90.40;;;;;;5113720;28;20207;-68
2022/03/23 00:11:41;;;;;;;32.03;14.57;;;6.40;90.50;;;;;;5115219;28;20200;-68
2022/03/23 00:14:09;;;;;;;29.17;14.37;;;6.30;90.70;;;;;;5114731;28;20208;-68
2022/03/23 00:16:37;;;;;;;28.30;13.20;;;6.30;90.80;;;;;;5114744;28;20231;-68
2022/03/23 00:19:07;;;;;;;29.07;12.17;;;6.30;90.90;;;;;;5114693;28;20217;-67
2022/03/23 00:21:34;;;;;;;30.40;11.33;;;6.20;91.10;;;;;;5114938;28;20621;-68
2022/03/23 00:24:01;;;;;;;26.60;10.87;;;6.20;91.20;;;;;;5114899;28;20214;-68
2022/03/23 00:26:28;;;;;;;21.40;10.17;;;6.30;91.30;;;;;;5114205;28;20219;-68
2022/03/23 00:28:56;;;;;;;21.03;9.27;;;6.30;91.40;;;;;;5114843;28;20207;-68
2022/03/23 00:31:23;;;;;;;25.40;9.87;;;6.30;91.40;;;;;;5114285;28;20298;-68
2022/03/23 00:33:50;;;;;;;22.03;9.47;;;6.30;91.50;;;;;;5114412;28;20218;-68
2022/03/23 00:36:20;;;;;;;20.43;8.90;;;6.30;91.50;;;;;;5114144;28;20203;-70
2022/03/23 00:38:48;;;;;;;25.53;9.30;;;6.30;91.50;;;;;;5114372;27;20211;-68
2022/03/23 00:41:15;;;;;;;21.97;8.70;;;6.40;91.60;;;;;;5114433;28;20581;-68
2022/03/23 00:43:42;;;;;;;19.73;8.33;;;6.40;91.60;;;;;;5114432;28;20207;-67
2022/03/23 00:46:09;;;;;;;19.00;8.57;;;6.40;91.50;;;;;;5114003;28;20234;-68
2022/03/23 00:48:36;;;;;;;23.67;8.20;;;6.40;91.60;;;;;;5114443;28;20595;-67
2022/03/23 00:51:04;;;;;;;23.63;9.37;;;6.50;91.50;;;;;;5114220;28;20212;-67
2022/03/23 00:53:32;;;;;;;22.70;8.77;;;6.50;91.50;;;;;;5114020;28;20203;-68
2022/03/23 00:56:00;;;;;;;23.63;9.37;;;6.50;91.50;;;;;;5114283;28;20262;-68
2022/03/23 00:58:27;;;;;;;23.47;9.87;;;6.50;91.60;;;;;;5113743;28;20223;-68
2022/03/23 01:00:55;;;;;;;23.53;9.37;;;6.50;91.50;;;;;;5113828;28;20203;-68
2022/03/23 01:03:22;;;;;;;21.20;10.27;;;6.50;91.40;;;;;;5114021;27;20565;-68
2022/03/23 01:05:51;;;;;;;24.83;10.50;;;6.50;91.40;;;;;;5113635;28;20203;-68
2022/03/23 01:08:18;;;;;;;26.80;10.87;;;6.50;91.40;;;;;;5113427;28;20242;-68
2022/03/23 01:10:46;;;;;;;24.33;11.17;;;6.50;91.40;;;;;;5113715;28;20214;-68
2022/03/23 01:13:13;;;;;;;28.40;11.37;;;6.50;91.40;;;;;;5113586;28;20472;-68
2022/03/23 01:15:40;;;;;;;26.27;11.17;;;6.50;91.40;;;;;;5113548;28;20199;-68
2022/03/23 01:18:09;;;;;;;23.73;11.40;;;6.50;91.30;;;;;;5113626;28;20207;-68
2022/03/23 01:20:36;;;;;;;26.97;11.70;;;6.50;91.30;;;;;;5113614;28;20203;-68
2022/03/23 01:23:04;;;;;;;25.10;11.53;;;6.50;91.30;;;;;;5113519;28;20555;-67
2022/03/23 01:25:31;;;;;;;24.47;12.40;;;6.50;91.20;;;;;;5113698;28;20594;-68
2022/03/23 01:28:00;;;;;;;28.80;13.50;;;6.50;91.30;;;;;;5113420;28;20219;-68
2022/03/23 01:30:27;;;;;;;31.47;14.30;;;6.60;91.30;;;;;;5113264;28;20203;-68
2022/03/23 01:32:54;;;;;;;31.43;15.23;;;6.50;91.30;;;;;;5113137;28;20237;-68
2022/03/23 01:35:21;;;;;;;38.03;16.80;;;6.50;91.30;;;;;;5113324;28;20563;-68
2022/03/23 01:37:48;;;;;;;35.20;17.00;;;6.50;91.30;;;;;;5113269;28;20203;-68
2022/03/23 01:40:16;;;;;;;40.37;18.27;;;6.50;91.40;;;;;;5112961;28;20218;-68
2022/03/23 01:42:44;;;;;;;38.90;18.73;;;6.40;91.40;;;;;;5112977;28;20203;-68
2022/03/23 01:45:14;;;;;;;40.87;18.70;;;6.40;91.40;;;;;;5113122;28;20563;-68
2022/03/23 01:47:41;;;;;;;40.53;20.20;;;6.40;91.40;;;;;;5112845;28;20207;-69
2022/03/23 01:50:10;;;;;;;44.70;19.90;;;6.40;91.50;;;;;;5112719;28;20222;-68
2022/03/23 01:52:38;;;;;;;48.63;20.43;;;6.40;91.40;;;;;;5113191;28;20714;-66
2022/03/23 01:55:09;;;;;;;45.20;20.87;;;6.30;91.40;;;;;;5112722;28;20246;-68
2022/03/23 01:57:39;;;;;;;47.87;21.93;;;6.30;91.40;;;;;;5112666;28;20191;-67
2022/03/23 02:00:08;;;;;;;43.13;20.57;;;6.30;91.40;;;;;;5112635;28;20214;-68
2022/03/23 02:02:36;;;;;;;44.80;21.27;;;6.30;91.40;;;;;;5113028;28;20692;-68
2022/03/23 02:05:04;;;;;;;47.60;22.47;;;6.30;91.40;;;;;;5112831;28;20659;-68
2022/03/23 02:07:32;;;;;;;58.30;24.97;;;6.30;91.40;;;;;;5112417;28;20235;-67
2022/03/23 02:10:00;;;;;;;55.67;26.63;;;6.20;91.50;;;;;;5112717;28;20491;-68
2022/03/23 02:12:30;;;;;;;55.97;27.37;;;6.10;91.60;;;;;;5112847;28;20614;-67
2022/03/23 02:14:58;;;;;;;65.17;29.33;;;6.10;91.70;;;;;;5112677;28;20659;-68
2022/03/23 02:17:26;;;;;;;64.07;30.03;;;6.00;91.90;;;;;;5112371;28;20204;-68
2022/03/23 02:19:54;;;;;;;64.60;31.33;;;5.90;92.10;;;;;;5112338;28;20252;-68
2022/03/23 02:22:23;;;;;;;65.80;32.63;;;5.80;92.20;;;;;;5112470;28;20214;-69
2022/03/23 02:24:51;;;;;;;67.90;32.00;;;5.70;92.50;;;;;;5112713;28;20199;-69
2022/03/23 02:27:19;;;;;;;72.00;34.87;;;5.60;92.50;;;;;;5112518;28;20582;-68
2022/03/23 02:29:47;;;;;;;75.57;37.87;;;5.60;92.40;;;;;;5112688;28;20562;-68
2022/03/23 02:32:14;;;;;;;84.37;40.20;;;5.60;92.50;;;;;;5111732;28;20203;-67
2022/03/23 02:34:42;;;;;;;86.97;41.93;;;5.60;92.50;;;;;;5112626;28;20679;-68
2022/03/23 02:37:09;;;;;;;83.93;42.03;;;5.60;92.60;;;;;;5112135;28;20472;-68
2022/03/23 02:39:37;;;;;;;83.77;41.23;;;5.50;92.60;;;;;;5112210;28;20297;-69
2022/03/23 02:42:05;;;;;;;72.87;36.03;;;5.40;92.70;;;;;;5112300;28;20252;-69
2022/03/23 02:44:32;;;;;;;57.67;30.63;;;5.40;92.70;;;;;;5112268;28;20203;-68
2022/03/23 02:47:01;;;;;;;51.77;25.33;;;5.40;92.70;;;;;;5112321;28;20560;-69
2022/03/23 02:49:28;;;;;;;43.93;22.17;;;5.40;92.70;;;;;;5112171;28;20207;-69
2022/03/23 02:51:55;;;;;;;37.37;19.50;;;5.30;92.60;;;;;;5111963;28;20218;-68
2022/03/23 03:02:47;;;;;;;32.70;15.03;;;5.30;92.60;;;;;;5111989;28;20551;-68
2022/03/23 03:05:15;;;;;;;34.27;16.13;;;5.20;92.70;;;;;;5112013;28;20199;-68
2022/03/23 03:10:27;;;;;;;30.83;15.20;;;5.20;92.70;;;;;;5112127;28;20187;-68
2022/03/23 03:12:57;;;;;;;32.90;16.30;;;5.20;92.80;;;;;;5112098;28;20644;-68
2022/03/23 03:15:24;;;;;;;37.20;16.73;;;5.10;92.90;;;;;;5111948;28;20261;-68
2022/03/23 03:17:52;;;;;;;32.77;16.30;;;5.10;92.90;;;;;;5112013;28;20673;-68
2022/03/23 03:20:19;;;;;;;36.03;17.30;;;5.10;92.90;;;;;;5112127;28;20203;-68
2022/03/23 03:22:46;;;;;;;36.77;17.40;;;5.10;92.90;;;;;;5111707;28;20208;-69
2022/03/23 03:25:15;;;;;;;37.90;17.93;;;5.10;92.90;;;;;;5112108;28;20701;-68
2022/03/23 03:27:42;;;;;;;36.87;17.40;;;5.00;92.90;;;;;;5111738;28;20230;-68
2022/03/23 03:30:13;;;;;;;35.23;17.20;;;5.00;92.90;;;;;;5111801;28;20676;-67
2022/03/23 03:32:41;;;;;;;39.37;17.77;;;5.00;92.90;;;;;;5112064;28;20192;-68
2022/03/23 03:35:09;;;;;;;33.47;16.60;;;5.00;92.90;;;;;;5111729;28;20207;-68
2022/03/23 03:37:37;;;;;;;37.87;18.97;;;5.00;93.00;;;;;;5111807;28;20210;-68
2022/03/23 03:40:06;;;;;;;38.83;18.53;;;4.90;93.00;;;;;;5111913;28;20199;-67
2022/03/23 03:42:34;;;;;;;36.67;18.10;;;4.90;93.20;;;;;;5111680;28;20211;-68
2022/03/23 03:45:02;;;;;;;39.17;16.57;;;4.80;93.30;;;;;;5112786;28;20214;-68
2022/03/23 03:47:30;;;;;;;33.60;16.40;;;4.80;93.40;;;;;;5115523;28;20224;-68
2022/03/23 03:49:57;;;;;;;32.93;16.30;;;4.80;93.50;;;;;;5115398;28;20545;-69
2022/03/23 03:52:25;;;;;;;30.43;15.53;;;4.70;93.50;;;;;;5115729;27;20593;-68
2022/03/23 03:54:52;;;;;;;30.43;15.83;;;4.70;93.50;;;;;;5115288;27;20211;-67
2022/03/23 03:57:19;;;;;;;40.90;16.17;;;4.70;93.50;;;;;;5115074;28;20199;-69
2022/03/23 03:59:46;;;;;;;31.40;15.00;;;4.70;93.60;;;;;;5115176;28;20225;-69
2022/03/23 04:02:14;;;;;;;32.90;16.10;;;4.60;93.50;;;;;;5114962;28;20203;-68
2022/03/23 04:04:42;;;;;;;32.93;15.50;;;4.60;93.60;;;;;;5115149;28;20634;-68
2022/03/23 04:07:09;;;;;;;35.87;15.53;;;4.60;93.70;;;;;;5114844;28;20239;-69
2022/03/23 04:09:36;;;;;;;38.73;17.33;;;4.60;93.70;;;;;;5115316;28;20199;-68
2022/03/23 04:12:04;;;;;;;33.90;18.10;;;4.50;93.70;;;;;;5114779;28;20203;-69
2022/03/23 04:14:31;;;;;;;38.37;18.23;;;4.50;93.80;;;;;;5115060;28;20207;-69
2022/03/23 04:16:59;;;;;;;39.73;18.47;;;4.50;93.80;;;;;;5114510;28;20207;-70
2022/03/23 04:19:26;;;;;;;40.97;18.80;;;4.50;94.00;;;;;;5114988;28;20222;-68
2022/03/23 04:21:54;;;;;;;39.67;17.67;;;4.40;94.20;;;;;;5114433;28;20210;-68
2022/03/23 04:24:21;;;;;;;41.03;19.23;;;4.40;94.30;;;;;;5114571;28;20210;-68
2022/03/23 04:26:49;;;;;;;39.17;18.97;;;4.40;94.30;;;;;;5114629;28;20269;-69
2022/03/23 04:29:16;;;;;;;39.87;18.47;;;4.40;94.40;;;;;;5114423;28;20206;-68
2022/03/23 04:31:43;;;;;;;35.73;17.03;;;4.30;94.40;;;;;;5114613;28;20203;-67
2022/03/23 04:34:10;;;;;;;38.33;18.80;;;4.30;94.40;;;;;;5114413;28;20207;-68
2022/03/23 04:36:37;;;;;;;37.90;18.53;;;4.30;94.50;;;;;;5114575;28;20655;-68
2022/03/23 04:39:06;;;;;;;36.13;18.27;;;4.30;94.50;;;;;;5114579;28;20204;-67
2022/03/23 04:41:33;;;;;;;34.70;17.90;;;4.30;94.50;;;;;;5114443;28;20530;-69
2022/03/23 04:44:00;;;;;;;38.17;17.73;;;4.30;94.40;;;;;;5114143;28;20199;-68
2022/03/23 04:46:27;;;;;;;35.63;17.53;;;4.30;94.40;;;;;;5114463;28;20226;-68
2022/03/23 04:48:54;;;;;;;33.80;17.10;;;4.30;94.40;;;;;;5114210;28;20255;-69
2022/03/23 04:51:21;;;;;;;36.27;18.20;;;4.40;94.50;;;;;;5114088;28;20203;-69
2022/03/23 04:53:48;;;;;;;36.00;17.53;;;4.40;94.60;;;;;;5114124;27;20664;-68
2022/03/23 04:56:17;;;;;;;30.57;17.40;;;4.40;94.50;;;;;;5113759;28;20230;-69
2022/03/23 04:58:44;;;;;;;36.63;17.70;;;4.40;94.50;;;;;;5113904;28;20687;-68
2022/03/23 05:01:11;;;;;;;40.87;18.53;;;4.40;94.50;;;;;;5114187;28;20203;-69
2022/03/23 05:03:38;;;;;;;35.73;18.17;;;4.40;94.50;;;;;;5113625;28;20218;-68
2022/03/23 05:06:05;;;;;;;37.57;18.90;;;4.50;94.60;;;;;;5114038;28;20206;-69
2022/03/23 05:08:32;;;;;;;43.63;19.40;;;4.50;94.60;;;;;;5113209;28;20246;-68
2022/03/23 05:10:59;;;;;;;40.77;19.60;;;4.50;94.60;;;;;;5113681;27;20210;-67
2022/03/23 05:13:28;;;;;;;43.23;20.43;;;4.50;94.60;;;;;;5113900;28;20207;-68
2022/03/23 05:15:55;;;;;;;40.07;20.77;;;4.50;94.70;;;;;;5113573;28;20206;-69
2022/03/23 05:18:22;;;;;;;40.40;20.03;;;4.50;94.70;;;;;;5113507;28;20207;-69
2022/03/23 05:20:49;;;;;;;45.53;21.20;;;4.50;94.70;;;;;;5113240;28;20207;-68
2022/03/23 05:23:16;;;;;;;45.57;21.43;;;4.60;94.70;;;;;;5114037;28;20203;-68
2022/03/23 05:25:43;;;;;;;47.47;23.10;;;4.50;94.80;;;;;;5113271;28;20294;-68
2022/03/23 05:28:11;;;;;;;48.33;23.10;;;4.50;94.90;;;;;;5113552;28;20700;-68
2022/03/23 05:30:39;;;;;;;47.50;24.23;;;4.50;95.00;;;;;;5113367;28;20203;-68
2022/03/23 05:33:06;;;;;;;45.73;23.63;;;4.50;95.10;;;;;;5113186;28;20203;-69
2022/03/23 05:35:34;;;;;;;49.07;24.23;;;4.50;95.10;;;;;;5113386;28;20207;-69
2022/03/23 05:38:01;;;;;;;52.87;25.60;;;4.60;95.20;;;;;;5113475;28;20203;-69
2022/03/23 05:40:28;;;;;;;45.93;23.47;;;4.60;95.20;;;;;;5113301;28;20207;-69
2022/03/23 05:42:55;;;;;;;45.20;24.17;;;4.60;95.20;;;;;;5113311;28;20563;-69
2022/03/23 05:45:23;;;;;;;51.00;25.10;;;4.70;95.20;;;;;;5112960;28;20207;-68
2022/03/23 05:47:53;;;;;;;52.27;25.07;;;4.70;95.20;;;;;;5112933;28;20258;-68
2022/03/23 05:50:21;;;;;;;49.60;25.03;;;4.70;95.20;;;;;;5113310;28;20198;-68
2022/03/23 05:52:48;;;;;;;52.97;25.43;;;4.80;95.10;;;;;;5113240;28;20560;-68
2022/03/23 05:55:15;;;;;;;52.60;27.53;;;4.90;95.20;;;;;;5112750;28;20215;-68
2022/03/23 05:57:42;;;;;;;56.43;27.40;;;4.90;95.20;;;;;;5112891;28;20581;-69
2022/03/23 06:00:11;;;;;;;50.43;26.03;;;5.00;95.20;;;;;;5113085;28;20204;-68
2022/03/23 06:02:38;;;;;;;55.63;27.83;;;5.00;95.20;;;;;;5112651;28;20280;-69
2022/03/23 06:05:08;;;;;;;61.17;29.27;;;5.10;95.20;;;;;;5112681;28;20207;-68
2022/03/23 06:07:35;;;;;;;55.77;29.13;;;5.20;95.20;;;;;;5111622;28;20587;-67
2022/03/23 06:10:02;;;;;;;66.17;32.40;;;5.20;95.20;;;;;;5112886;28;20211;-68
2022/03/23 06:12:29;;;;;;;63.57;32.40;;;5.30;95.20;;;;;;5112738;28;20203;-68
2022/03/23 06:14:56;;;;;;;74.73;38.47;;;5.40;95.20;;;;;;5112822;28;20722;-68
2022/03/23 06:17:24;;;;;;;88.60;43.20;;;5.40;95.20;;;;;;5112492;28;20256;-68
2022/03/23 06:19:51;;;;;;;97.20;48.87;;;5.50;95.10;;;;;;5112439;28;20203;-69
2022/03/23 06:22:19;;;;;;;108.37;55.23;;;5.60;95.10;;;;;;5112536;28;20199;-68
2022/03/23 06:24:46;;;;;;;115.17;58.87;;;5.60;95.10;;;;;;5112770;28;20207;-69
2022/03/23 06:27:14;;;;;;;131.33;66.03;;;5.70;95.10;;;;;;5112354;28;20218;-67
2022/03/23 06:29:41;;;;;;;165.80;86.90;;;5.80;95.10;;;;;;5112179;28;20322;-68
2022/03/23 06:32:09;;;;;;;160.50;84.60;;;5.80;95.00;;;;;;5112379;28;20207;-68
2022/03/23 06:34:36;;;;;;;167.73;88.03;;;5.90;95.00;;;;;;5112208;28;20214;-68
2022/03/23 06:37:03;;;;;;;174.17;90.57;;;6.00;95.00;;;;;;5112599;28;20206;-68
2022/03/23 06:39:33;;;;;;;167.10;88.77;;;6.10;95.10;;;;;;5112518;28;20199;-67
2022/03/23 06:42:00;;;;;;;177.90;93.93;;;6.20;95.10;;;;;;5112454;28;20215;-69
2022/03/23 06:44:27;;;;;;;184.50;98.30;;;6.30;95.10;;;;;;5112098;28;20225;-68
2022/03/23 06:46:55;;;;;;;209.73;108.33;;;6.40;95.20;;;;;;5112617;28;20331;-67
2022/03/23 06:49:22;;;;;;;197.60;103.00;;;6.50;95.30;;;;;;5112288;28;20220;-69
2022/03/23 06:51:49;;;;;;;190.40;104.53;;;6.60;95.40;;;;;;5112080;28;20211;-69
2022/03/23 06:54:17;;;;;;;195.33;104.73;;;6.70;95.50;;;;;;5111933;28;20203;-67
2022/03/23 06:56:50;;;;;;;188.53;100.33;;;6.80;95.50;;;;;;5112347;28;20230;-68
2022/03/23 06:59:17;;;;;;;181.77;99.97;;;6.90;95.40;;;;;;5112087;28;20644;-68
2022/03/23 07:01:44;;;;;;;197.03;106.23;;;7.00;95.40;;;;;;5112133;28;20203;-68
2022/03/23 07:04:11;;;;;;;182.17;99.30;;;7.20;95.40;;;;;;5111891;28;20207;-67
2022/03/23 07:06:38;;;;;;;174.63;97.13;;;7.30;95.30;;;;;;5111681;28;20207;-67
2022/03/23 07:11:48;;;;;;;170.67;94.00;;;7.50;95.20;;;;;;5098482;28;20744;-68
2022/03/23 07:14:15;;;;;;;168.80;94.57;;;7.60;95.00;;;;;;5111685;28;20203;-68
2022/03/23 07:16:43;;;;;;;174.40;92.80;;;7.70;94.80;;;;;;5111806;28;20203;-67
2022/03/23 07:19:11;;;;;;;162.97;89.27;;;7.80;94.80;;;;;;5113361;28;20202;-67
2022/03/23 07:21:38;;;;;;;147.60;83.20;;;7.90;94.80;;;;;;5115846;28;20211;-67
2022/03/23 07:24:07;;;;;;;158.63;84.00;;;8.00;94.70;;;;;;5115740;28;20306;-68
2022/03/23 07:26:34;;;;;;;162.70;85.30;;;8.10;94.70;;;;;;5115509;28;20297;-68
2022/03/23 07:29:03;;;;;;;156.20;85.90;;;8.20;94.60;;;;;;5115904;28;20219;-68
2022/03/23 07:31:30;;;;;;;158.97;86.57;;;8.30;94.50;;;;;;5115516;28;20203;-68
2022/03/23 07:33:58;;;;;;;155.83;87.67;;;8.40;94.40;;;;;;5115500;28;20214;-69
2022/03/23 07:36:25;;;;;;;163.80;90.03;;;8.50;94.40;;;;;;5115641;28;20692;-67
2022/03/23 07:38:53;;;;;;;155.23;85.63;;;8.60;94.30;;;;;;5115660;28;20199;-68
2022/03/23 07:41:21;;;;;;;154.90;87.77;;;8.70;94.30;;;;;;5115262;28;20215;-68
2022/03/23 07:43:48;;;;;;;162.93;89.60;;;8.80;94.20;;;;;;5115410;28;20210;-68
2022/03/23 07:46:18;;;;;;;168.73;90.50;;;9.00;94.20;;;;;;5115451;28;20275;-68
2022/03/23 07:48:46;;;;;;;165.90;89.27;;;9.10;94.10;;;;;;5115304;28;20215;-69
2022/03/23 07:51:13;;;;;;;162.93;85.70;;;9.20;93.90;;;;;;5115061;28;20214;-69
2022/03/23 07:53:40;;;;;;;167.60;91.10;;;9.30;93.90;;;;;;5115437;28;20648;-68
2022/03/23 07:56:07;;;;;;;168.10;90.83;;;9.30;93.80;;;;;;5115154;28;20674;-68
2022/03/23 07:58:34;;;;;;;163.30;89.93;;;9.50;93.80;;;;;;5114827;28;20223;-67
2022/03/23 08:01:01;;;;;;;174.10;93.53;;;9.70;93.70;;;;;;5115362;28;20674;-69
2022/03/23 08:03:30;;;;;;;182.77;97.00;;;9.80;93.20;;;;;;5115364;28;20640;-68
2022/03/23 08:05:57;;;;;;;161.63;88.40;;;9.90;92.90;;;;;;5114833;28;20215;-67
2022/03/23 08:08:24;;;;;;;172.80;95.50;;;10.00;92.90;;;;;;5114638;28;20622;-68
2022/03/23 08:10:51;;;;;;;181.70;98.33;;;10.20;92.30;;;;;;5115010;28;20670;-69
2022/03/23 08:13:19;;;;;;;167.20;95.63;;;10.30;92.40;;;;;;5114633;28;20215;-69
2022/03/23 08:15:46;;;;;;;189.60;104.93;;;10.40;92.30;;;;;;5115027;28;20203;-69
2022/03/23 08:18:15;;;;;;;176.30;100.40;;;10.50;91.50;;;;;;5114718;28;20203;-70
2022/03/23 08:20:44;;;;;;;183.17;102.20;;;10.60;91.40;;;;;;5114514;28;20207;-68
2022/03/23 08:23:15;;;;;;;179.13;99.03;;;10.80;91.50;;;;;;5114719;28;20294;-68
2022/03/23 08:25:43;;;;;;;186.80;100.37;;;10.90;91.50;;;;;;5115000;28;20196;-69
2022/03/23 08:28:11;;;;;;;190.30;104.73;;;10.90;91.50;;;;;;5114488;28;20203;-68
2022/03/23 08:30:40;;;;;;;192.17;108.43;;;11.00;91.40;;;;;;5113546;28;20248;-69
2022/03/23 08:33:08;;;;;;;184.30;104.60;;;11.10;91.20;;;;;;5114507;28;20208;-68
2022/03/23 08:35:36;;;;;;;195.20;110.30;;;11.20;91.20;;;;;;5114255;28;20308;-69
2022/03/23 08:38:04;;;;;;;191.33;107.10;;;11.20;90.90;;;;;;5114169;28;20210;-68
2022/03/23 08:40:32;;;;;;;187.47;103.27;;;11.40;90.70;;;;;;5114485;28;20206;-69
2022/03/23 08:42:59;;;;;;;190.37;105.63;;;11.40;90.60;;;;;;5114099;28;20207;-68
2022/03/23 08:45:27;;;;;;;173.57;98.23;;;11.50;90.40;;;;;;5114356;28;20249;-68
2022/03/23 08:47:54;;;;;;;176.63;98.00;;;11.60;90.40;;;;;;5114442;28;20560;-68
2022/03/23 08:50:21;;;;;;;169.37;96.60;;;11.70;90.30;;;;;;5113848;28;20258;-69
2022/03/23 08:52:49;;;;;;;168.27;93.40;;;11.70;90.20;;;;;;5114371;28;20344;-68
2022/03/23 08:55:19;;;;;;;153.27;82.60;;;11.90;88.70;;;;;;5113744;28;20210;-68
2022/03/23 08:57:47;;;;;;;137.63;78.67;;;12.00;87.40;;;;;;5114149;28;20224;-70
2022/03/23 09:00:15;;;;;;;150.40;82.87;;;12.10;87.90;;;;;;5113608;28;20211;-69
2022/03/23 09:02:42;;;;;;;152.63;86.90;;;12.20;88.00;;;;;;5113997;28;20556;-69
2022/03/23 09:05:11;;;;;;;146.67;82.43;;;12.30;87.20;;;;;;5113607;28;20203;-68
2022/03/23 09:07:39;;;;;;;149.53;83.83;;;12.40;87.10;;;;;;5113464;28;20729;-68
2022/03/23 09:10:08;;;;;;;157.70;85.60;;;12.50;86.90;;;;;;5113414;28;20224;-68
2022/03/23 09:12:37;;;;;;;169.07;91.70;;;12.60;86.90;;;;;;5113965;28;20210;-68
2022/03/23 09:15:05;;;;;;;168.23;85.93;;;12.70;86.30;;;;;;5113356;28;20252;-68
2022/03/23 09:17:32;;;;;;;130.53;67.30;;;12.80;84.60;;;;;;5113365;28;20331;-68
2022/03/23 09:20:01;;;;;;;139.17;69.57;;;12.90;82.20;;;;;;5113227;28;20196;-69
2022/03/23 09:22:28;;;;;;;139.53;69.90;;;13.10;81.70;;;;;;5113641;28;20619;-68
2022/03/23 09:24:56;;;;;;;148.70;69.63;;;13.20;81.10;;;;;;5113200;28;20264;-67
2022/03/23 09:27:23;;;;;;;119.33;57.97;;;13.30;81.10;;;;;;5113519;28;20566;-69
2022/03/23 09:29:51;;;;;;;72.80;38.77;;;13.40;80.80;;;;;;5113492;28;20215;-68
2022/03/23 09:32:18;;;;;;;59.87;30.60;;;13.50;79.70;;;;;;5113379;28;20221;-68
2022/03/23 09:34:47;;;;;;;47.07;25.07;;;13.60;78.90;;;;;;5113155;28;20203;-69
2022/03/23 09:39:59;;;;;;;36.73;21.00;;;13.80;78.80;;;;;;5113032;28;20182;-68
2022/03/23 09:42:27;;;;;;;33.53;18.30;;;13.90;77.40;;;;;;5113238;28;20206;-68
2022/03/23 09:44:56;;;;;;;66.43;33.47;;;14.00;76.90;;;;;;5113027;28;20339;-68
2022/03/23 09:47:24;;;;;;;67.07;34.67;;;14.10;77.20;;;;;;5112927;28;20206;-68
2022/03/23 09:49:51;;;;;;;49.83;27.10;;;14.20;77.20;;;;;;5112493;28;20223;-68
2022/03/23 09:52:19;;;;;;;33.57;17.77;;;14.20;76.60;;;;;;5113081;28;20691;-68
2022/03/23 09:54:46;;;;;;;26.00;13.03;;;14.20;75.90;;;;;;5112820;28;20199;-70
2022/03/23 09:57:14;;;;;;;44.07;23.37;;;14.20;74.90;;;;;;5112438;28;20223;-68
2022/03/23 09:59:41;;;;;;;49.70;24.23;;;14.20;75.00;;;;;;5112759;28;20223;-69
2022/03/23 10:02:45;;;;;;;35.63;19.13;;;14.30;75.30;;;;;;5112888;28;20203;-68
2022/03/23 10:05:49;;;;;;;42.77;23.83;;;14.30;74.80;;;;;;5112557;28;20213;-69
2022/03/23 10:09:07;;;;;;;61.57;32.60;;;14.40;75.30;;;;;;5112221;28;20234;-70
2022/03/23 10:12:20;;;;;;;54.27;29.40;;;14.40;75.60;;;;;;5112517;28;20214;-68
2022/03/23 10:15:45;;;;;;;77.50;40.97;;;14.50;75.30;;;;;;5112275;28;20191;-68
2022/03/23 10:18:44;;;;;;;82.80;43.93;;;14.50;75.20;;;;;;5112702;28;20241;-68
2022/03/23 10:21:12;;;;;;;92.47;48.23;;;14.60;74.60;;;;;;5108117;28;20199;-69
2022/03/23 10:23:39;;;;;;;101.87;52.80;;;14.70;74.80;;;;;;5112503;28;20563;-68
2022/03/23 10:26:13;;;;;;;107.73;54.40;;;14.70;74.80;;;;;;5112167;28;20199;-68
2022/03/23 10:28:41;;;;;;;116.10;58.97;;;14.70;75.40;;;;;;5112284;28;20294;-69
2022/03/23 10:31:16;;;;;;;115.60;61.97;;;14.80;75.60;;;;;;5112288;28;20230;-69
2022/03/23 10:33:44;;;;;;;107.17;54.33;;;14.90;75.40;;;;;;5112329;28;20584;-68
2022/03/23 10:36:12;;;;;;;104.10;51.43;;;14.90;75.40;;;;;;5112305;28;20207;-67
2022/03/23 10:38:40;;;;;;;96.10;50.10;;;14.90;75.10;;;;;;5112542;28;20724;-69
2022/03/23 10:41:11;;;;;;;102.87;51.73;;;15.00;75.40;;;;;;5111906;28;20195;-68
2022/03/23 10:43:40;;;;;;;89.37;46.07;;;15.00;75.40;;;;;;5112182;28;20191;-69
2022/03/23 10:46:08;;;;;;;82.70;43.77;;;15.10;75.60;;;;;;5112048;28;20207;-68
2022/03/23 10:48:36;;;;;;;86.30;43.97;;;15.10;75.50;;;;;;5112315;28;20203;-68
2022/03/23 10:51:03;;;;;;;84.57;44.50;;;15.20;75.30;;;;;;5111800;28;20230;-69
2022/03/23 10:53:38;;;;;;;84.20;43.03;;;15.20;75.50;;;;;;5112849;28;20692;-69
2022/03/23 10:56:07;;;;;;;89.30;42.00;;;15.30;75.20;;;;;;5116077;28;20194;-69
2022/03/23 10:58:35;;;;;;;79.93;41.30;;;15.30;75.60;;;;;;5116510;28;20234;-69
2022/03/23 11:01:06;;;;;;;79.87;38.83;;;15.40;74.70;;;;;;5116369;28;20195;-69
2022/03/23 11:03:38;;;;;;;78.13;39.03;;;15.50;74.70;;;;;;5116569;28;20611;-70
2022/03/23 11:06:08;;;;;;;71.97;36.63;;;15.50;74.20;;;;;;5116068;28;20214;-70
2022/03/23 11:08:36;;;;;;;71.07;36.50;;;15.50;74.20;;;;;;5115784;28;20311;-69
2022/03/23 11:16:41;;;;;;;56.40;28.90;;;15.70;73.30;;;;;;5115869;28;20767;-70
2022/03/23 11:19:13;;;;;;;58.60;29.83;;;15.70;72.80;;;;;;5115747;28;20199;-69
2022/03/23 11:22:02;;;;;;;59.67;30.67;;;15.80;72.70;;;;;;5115556;28;20202;-68
2022/03/23 11:24:33;;;;;;;55.83;29.47;;;15.80;72.20;;;;;;5116022;28;20237;-69
2022/03/23 11:27:01;;;;;;;48.00;26.97;;;15.80;72.20;;;;;;5115520;28;20191;-69
2022/03/23 11:29:32;;;;;;;48.07;26.77;;;15.90;72.20;;;;;;5115788;28;20223;-69
2022/03/23 11:32:02;;;;;;;50.33;25.57;;;15.90;72.60;;;;;;5115834;28;20550;-69
2022/03/23 11:34:33;;;;;;;45.70;24.80;;;15.90;72.50;;;;;;5115509;28;20248;-68
2022/03/23 11:37:02;;;;;;;48.23;25.77;;;16.00;72.30;;;;;;5115440;28;20194;-68
2022/03/23 11:39:32;;;;;;;50.37;28.30;;;16.00;71.40;;;;;;5115790;28;20199;-69
2022/03/23 11:41:59;;;;;;;51.63;29.30;;;16.00;70.90;;;;;;5115580;28;20550;-68
2022/03/23 11:44:27;;;;;;;54.50;30.47;;;16.00;70.90;;;;;;5115691;28;20207;-68
2022/03/23 11:47:01;;;;;;;54.13;30.90;;;16.10;70.00;;;;;;5115334;28;20204;-68
2022/03/23 11:49:34;;;;;;;53.60;30.07;;;16.20;69.90;;;;;;5115431;28;20573;-69
2022/03/23 11:52:32;;;;;;;71.47;39.57;;;16.20;70.40;;;;;;5115489;28;20188;-69
2022/03/23 11:58:17;;;;;;;66.97;38.47;;;16.20;66.00;;;;;;5114987;28;20217;-68
2022/03/23 12:00:47;;;;;;;57.03;33.63;;;16.20;67.30;;;;;;5115062;28;20632;-68
2022/03/23 12:03:16;;;;;;;57.83;30.90;;;16.20;66.60;;;;;;5115084;28;20207;-69
2022/03/23 12:05:52;;;;;;;52.40;31.70;;;16.30;67.60;;;;;;5113539;28;20215;-68
2022/03/23 12:08:44;;;;;;;51.37;27.73;;;16.30;67.30;;;;;;5114778;28;20718;-69
2022/03/23 12:11:34;;;;;;;60.23;32.10;;;16.40;67.40;;;;;;5114619;28;20214;-68
2022/03/23 12:14:02;;;;;;;59.57;33.53;;;16.40;66.70;;;;;;5114694;28;20663;-67
2022/03/23 12:17:06;;;;;;;62.37;35.63;;;16.40;66.90;;;;;;5114974;28;20695;-68
2022/03/23 12:19:52;;;;;;;64.53;34.77;;;16.40;66.80;;;;;;5114461;28;20674;-67
2022/03/23 12:22:54;;;;;;;59.60;30.93;;;16.40;65.80;;;;;;5114520;28;20195;-68
2022/03/23 12:25:25;;;;;;;69.30;39.20;;;16.40;66.20;;;;;;5114767;28;20210;-68
2022/03/23 12:28:03;;;;;;;67.70;39.97;;;16.40;66.70;;;;;;5114413;28;20192;-69
2022/03/23 12:31:00;;;;;;;65.13;36.47;;;16.50;65.50;;;;;;5114259;28;20218;-67
2022/03/23 12:33:28;;;;;;;57.47;33.10;;;16.40;65.90;;;;;;5114717;28;20834;-68
2022/03/23 12:36:00;;;;;;;58.30;31.97;;;16.50;66.10;;;;;;5114309;28;20204;-68
2022/03/23 12:38:29;;;;;;;50.37;27.30;;;16.50;66.00;;;;;;5114397;28;20195;-69
2022/03/23 12:40:58;;;;;;;43.03;23.87;;;16.50;65.80;;;;;;5114500;28;20196;-69
2022/03/23 12:43:39;;;;;;;44.43;24.07;;;16.50;65.10;;;;;;5114506;28;20814;-69
2022/03/23 12:46:18;;;;;;;34.03;19.80;;;16.50;65.00;;;;;;5114397;28;20192;-68
2022/03/23 13:00:25;;;;;;;28.77;16.90;;;16.60;65.10;;;;;;5113993;28;20179;-69
2022/03/23 13:03:31;;;;;;;31.20;17.40;;;16.50;64.50;;;;;;5114290;28;20627;-68
2022/03/23 13:06:09;;;;;;;34.97;19.17;;;16.60;64.70;;;;;;5114258;28;20210;-69
2022/03/23 13:08:38;;;;;;;34.73;19.40;;;16.60;64.50;;;;;;5113695;28;20734;-70
2022/03/23 13:11:07;;;;;;;40.53;21.17;;;16.60;64.40;;;;;;5113793;28;20626;-68
2022/03/23 13:13:36;;;;;;;40.80;20.60;;;16.70;64.50;;;;;;5113479;28;20216;-69
2022/03/23 13:16:08;;;;;;;34.40;20.83;;;16.70;64.20;;;;;;5113733;28;20582;-70
2022/03/23 13:18:36;;;;;;;36.50;19.97;;;16.70;63.20;;;;;;5113382;28;20203;-69
2022/03/23 13:21:04;;;;;;;37.93;21.57;;;16.70;63.20;;;;;;5113834;28;20671;-67